createdAt,value
2023-03-19T00:00:56.335Z,2.30
2023-03-19T00:01:56.349Z,2.60
2023-03-19T00:02:56.511Z,2.40
2023-03-19T00:03:56.293Z,2.40
2023-03-19T00:04:56.279Z,2.20
2023-03-19T00:05:56.268Z,2.40
2023-03-19T00:06:56.254Z,2.10
2023-03-19T00:07:56.249Z,2.00
2023-03-19T00:08:56.234Z,1.90
2023-03-19T00:09:56.224Z,2.40
2023-03-19T00:10:56.210Z,2.20
2023-03-19T00:11:56.205Z,2.10
2023-03-19T00:12:56.195Z,2.30
2023-03-19T00:13:56.177Z,2.10
2023-03-19T00:14:56.165Z,2.30
2023-03-19T00:15:56.185Z,2.30
2023-03-19T00:16:56.288Z,2.50
2023-03-19T00:17:56.134Z,2.50
2023-03-19T00:18:56.119Z,2.50
2023-03-19T00:19:56.110Z,2.10
2023-03-19T00:20:56.096Z,1.90
2023-03-19T00:21:56.091Z,2.00
2023-03-19T00:22:56.108Z,2.20
2023-03-19T00:23:56.067Z,2.10
2023-03-19T00:24:56.052Z,2.40
2023-03-19T00:25:56.086Z,1.90
2023-03-19T00:26:56.032Z,2.20
2023-03-19T00:27:56.023Z,2.10
2023-03-19T00:28:56.010Z,2.30
2023-03-19T00:29:55.998Z,2.10
2023-03-19T00:30:56.020Z,2.40
2023-03-19T00:31:56.003Z,2.20
2023-03-19T00:32:56.005Z,2.00
2023-03-19T00:33:55.952Z,2.30
2023-03-19T00:34:55.938Z,2.30
2023-03-19T00:35:55.962Z,2.10
2023-03-19T00:36:55.916Z,2.40
2023-03-19T00:37:55.906Z,2.40
2023-03-19T00:38:55.892Z,2.30
2023-03-19T00:39:55.886Z,2.30
2023-03-19T00:40:55.870Z,2.20
2023-03-19T00:41:55.860Z,2.30
2023-03-19T00:42:55.845Z,2.10
2023-03-19T00:43:55.856Z,2.20
2023-03-19T00:44:55.889Z,2.00
2023-03-19T00:45:55.897Z,2.30
2023-03-19T00:46:55.824Z,1.90
2023-03-19T00:47:55.813Z,2.60
2023-03-19T00:48:55.777Z,1.90
2023-03-19T00:49:55.833Z,2.50
2023-03-19T00:50:55.769Z,2.40
2023-03-19T00:51:55.747Z,2.40
2023-03-19T00:52:55.742Z,2.00
2023-03-19T00:53:55.725Z,2.50
2023-03-19T00:54:55.740Z,2.40
2023-03-19T00:55:55.702Z,2.70
2023-03-19T00:56:55.701Z,3.30
2023-03-19T00:57:55.679Z,2.20
2023-03-19T00:58:55.666Z,2.60
2023-03-19T00:59:55.656Z,2.50
2023-03-19T01:00:55.705Z,2.80
2023-03-19T01:01:55.630Z,2.70
2023-03-19T01:02:55.620Z,2.60
2023-03-19T01:03:55.655Z,2.40
2023-03-19T01:04:55.597Z,2.60
2023-03-19T01:05:55.582Z,2.20
2023-03-19T01:06:55.572Z,2.10
2023-03-19T01:07:55.560Z,2.50
2023-03-19T01:08:55.549Z,2.60
2023-03-19T01:09:55.539Z,2.70
2023-03-19T01:10:55.522Z,3.00
2023-03-19T01:11:55.512Z,2.40
2023-03-19T01:12:55.497Z,2.60
2023-03-19T01:13:55.490Z,2.50
2023-03-19T01:14:55.473Z,2.60
2023-03-19T01:15:55.466Z,2.60
2023-03-19T01:16:55.451Z,2.50
2023-03-19T01:17:55.442Z,2.70
2023-03-19T01:18:55.427Z,2.40
2023-03-19T01:19:55.438Z,2.50
2023-03-19T01:20:55.416Z,3.10
2023-03-19T01:21:55.395Z,2.90
2023-03-19T01:22:55.381Z,3.00
2023-03-19T01:23:55.374Z,2.80
2023-03-19T01:24:55.360Z,2.80
2023-03-19T01:25:55.358Z,2.80
2023-03-19T01:26:55.336Z,2.60
2023-03-19T01:27:55.328Z,2.90
2023-03-19T01:28:55.328Z,2.90
2023-03-19T01:29:55.304Z,3.00
2023-03-19T01:30:55.306Z,2.50
2023-03-19T01:31:55.284Z,2.90
2023-03-19T01:32:55.325Z,2.60
2023-03-19T01:33:55.257Z,2.80
2023-03-19T01:34:55.246Z,2.70
2023-03-19T01:35:55.423Z,2.50
2023-03-19T01:36:55.221Z,2.60
2023-03-19T01:37:55.212Z,3.20
2023-03-19T01:38:55.205Z,2.80
2023-03-19T01:39:55.188Z,3.20
2023-03-19T01:40:55.178Z,2.70
2023-03-19T01:41:55.175Z,3.20
2023-03-19T01:42:55.150Z,3.20
2023-03-19T01:43:55.144Z,3.10
2023-03-19T01:44:55.129Z,2.90
2023-03-19T01:45:55.120Z,3.00
2023-03-19T01:46:55.106Z,2.70
2023-03-19T01:47:55.098Z,3.30
2023-03-19T01:48:55.086Z,2.50
2023-03-19T01:49:55.077Z,3.00
2023-03-19T01:50:55.063Z,2.60
2023-03-19T01:51:55.072Z,3.10
2023-03-19T01:52:55.036Z,2.80
2023-03-19T01:53:55.026Z,3.10
2023-03-19T01:54:55.013Z,2.80
2023-03-19T01:55:55.008Z,2.70
2023-03-19T01:56:54.999Z,3.60
2023-03-19T01:57:54.980Z,3.00
2023-03-19T01:58:54.965Z,2.80
2023-03-19T01:59:54.957Z,2.80
2023-03-19T02:00:54.951Z,2.90
2023-03-19T02:01:55.090Z,3.30
2023-03-19T02:02:54.922Z,3.10
2023-03-19T02:03:54.912Z,3.30
2023-03-19T02:04:55.017Z,2.90
2023-03-19T02:05:54.893Z,3.30
2023-03-19T02:06:54.879Z,3.00
2023-03-19T02:07:54.888Z,3.00
2023-03-19T02:08:54.851Z,3.00
2023-03-19T02:09:54.841Z,3.60
2023-03-19T02:10:54.833Z,3.90
2023-03-19T02:11:54.818Z,3.20
2023-03-19T02:12:54.849Z,3.40
2023-03-19T02:13:54.816Z,3.30
2023-03-19T02:14:54.786Z,3.00
2023-03-19T02:15:54.942Z,3.30
2023-03-19T02:16:54.758Z,2.90
2023-03-19T02:17:54.750Z,3.60
2023-03-19T02:18:54.738Z,2.90
2023-03-19T02:19:54.725Z,3.00
2023-03-19T02:20:54.713Z,2.80
2023-03-19T02:21:54.703Z,3.00
2023-03-19T02:22:54.688Z,3.20
2023-03-19T02:23:54.697Z,3.40
2023-03-19T02:24:54.663Z,2.60
2023-03-19T02:25:54.655Z,3.00
2023-03-19T02:26:54.641Z,3.60
2023-03-19T02:27:54.633Z,3.50
2023-03-19T02:28:54.620Z,3.70
2023-03-19T02:29:54.609Z,3.40
2023-03-19T02:30:54.596Z,3.00
2023-03-19T02:31:54.591Z,2.50
2023-03-19T02:32:54.820Z,3.00
2023-03-19T02:33:54.561Z,3.30
2023-03-19T02:34:54.550Z,3.90
2023-03-19T02:35:54.581Z,3.30
2023-03-19T02:36:54.587Z,3.10
2023-03-19T02:37:54.516Z,3.20
2023-03-19T02:38:54.504Z,3.20
2023-03-19T02:39:54.517Z,3.10
2023-03-19T02:40:54.481Z,2.90
2023-03-19T02:41:54.472Z,3.40
2023-03-19T02:42:54.462Z,3.20
2023-03-19T02:43:54.454Z,3.40
2023-03-19T02:44:54.439Z,3.00
2023-03-19T02:45:54.452Z,3.60
2023-03-19T02:46:54.481Z,3.30
2023-03-19T02:47:54.400Z,2.60
2023-03-19T02:48:54.386Z,2.80
2023-03-19T02:49:54.381Z,2.80
2023-03-19T02:50:54.361Z,3.40
2023-03-19T02:51:54.360Z,2.60
2023-03-19T02:52:54.340Z,2.80
2023-03-19T02:53:54.332Z,2.40
2023-03-19T02:54:54.320Z,3.50
2023-03-19T02:55:54.333Z,3.20
2023-03-19T02:56:54.293Z,2.90
2023-03-19T02:57:54.327Z,3.20
2023-03-19T02:58:54.283Z,2.90
2023-03-19T02:59:54.267Z,3.30
2023-03-19T03:00:54.297Z,3.10
2023-03-19T03:01:54.369Z,3.50
2023-03-19T03:02:54.225Z,3.40
2023-03-19T03:03:54.221Z,2.60
2023-03-19T03:04:54.209Z,2.90
2023-03-19T03:05:54.198Z,3.00
2023-03-19T03:06:54.186Z,2.50
2023-03-19T03:07:54.177Z,2.80
2023-03-19T03:08:54.167Z,3.00
2023-03-19T03:09:54.153Z,2.80
2023-03-19T03:10:54.140Z,3.00
2023-03-19T03:11:54.147Z,2.80
2023-03-19T03:12:54.117Z,2.80
2023-03-19T03:13:54.103Z,3.00
2023-03-19T03:14:54.095Z,2.60
2023-03-19T03:15:54.083Z,3.00
2023-03-19T03:16:54.085Z,3.30
2023-03-19T03:17:54.058Z,3.20
2023-03-19T03:22:54.021Z,2.90
2023-03-19T03:23:53.989Z,3.10
2023-03-19T03:24:53.988Z,3.40
2023-03-19T03:25:53.971Z,2.90
2023-03-19T03:26:53.956Z,2.80
2023-03-19T03:27:53.959Z,3.30
2023-03-19T03:28:53.940Z,2.80
2023-03-19T03:29:53.931Z,2.90
2023-03-19T03:30:53.909Z,2.60
2023-03-19T03:31:53.934Z,2.60
2023-03-19T03:32:53.945Z,3.50
2023-03-19T03:33:53.870Z,2.70
2023-03-19T03:34:53.865Z,2.90
2023-03-19T03:35:53.870Z,2.80
2023-03-19T03:36:53.843Z,3.20
2023-03-19T03:37:53.828Z,3.20
2023-03-19T03:38:53.821Z,2.90
2023-03-19T03:39:53.801Z,3.00
2023-03-19T03:40:53.797Z,2.60
2023-03-19T03:41:53.778Z,3.10
2023-03-19T03:42:53.770Z,2.50
2023-03-19T03:43:53.780Z,2.60
2023-03-19T03:44:53.745Z,2.90
2023-03-19T03:45:53.811Z,3.30
2023-03-19T03:46:53.722Z,2.70
2023-03-19T03:47:53.707Z,2.50
2023-03-19T03:48:53.702Z,2.80
2023-03-19T03:49:53.683Z,2.80
2023-03-19T03:50:53.675Z,3.00
2023-03-19T03:51:53.660Z,2.40
2023-03-19T03:52:53.653Z,2.60
2023-03-19T03:53:53.636Z,2.40
2023-03-19T03:54:53.628Z,3.20
2023-03-19T03:55:53.616Z,2.70
2023-03-19T03:56:53.606Z,2.60
2023-03-19T03:57:53.593Z,2.90
2023-03-19T03:58:53.596Z,2.70
2023-03-19T03:59:53.587Z,2.30
2023-03-19T04:00:53.558Z,2.80
2023-03-19T04:01:53.556Z,2.50
2023-03-19T04:02:53.596Z,2.50
2023-03-19T04:03:53.519Z,2.20
2023-03-19T04:04:53.510Z,2.10
2023-03-19T04:05:53.503Z,2.30
2023-03-19T04:06:53.486Z,2.40
2023-03-19T04:07:53.474Z,2.90
2023-03-19T04:08:53.462Z,2.40
2023-03-19T04:09:53.448Z,2.70
2023-03-19T04:10:53.438Z,2.50
2023-03-19T04:11:53.424Z,2.50
2023-03-19T04:12:53.415Z,2.10
2023-03-19T04:13:53.401Z,2.40
2023-03-19T04:14:53.396Z,2.70
2023-03-19T04:15:53.394Z,2.20
2023-03-19T04:16:53.530Z,2.50
2023-03-19T04:17:53.352Z,2.30
2023-03-19T04:18:53.344Z,2.30
2023-03-19T04:19:53.327Z,3.00
2023-03-19T04:20:53.319Z,3.00
2023-03-19T04:21:53.304Z,2.40
2023-03-19T04:22:53.294Z,2.60
2023-03-19T04:23:53.289Z,2.80
2023-03-19T04:24:53.272Z,2.50
2023-03-19T04:25:53.262Z,2.50
2023-03-19T04:26:53.246Z,2.10
2023-03-19T04:27:53.232Z,2.50
2023-03-19T04:28:53.225Z,2.70
2023-03-19T04:29:53.207Z,2.50
2023-03-19T04:30:53.272Z,2.20
2023-03-19T04:31:53.207Z,2.20
2023-03-19T04:32:53.258Z,2.70
2023-03-19T04:33:53.163Z,2.30
2023-03-19T04:34:53.154Z,2.70
2023-03-19T04:35:53.188Z,2.90
2023-03-19T04:36:53.134Z,2.50
2023-03-19T04:37:53.114Z,2.00
2023-03-19T04:38:53.102Z,2.40
2023-03-19T04:39:53.090Z,2.60
2023-03-19T04:40:53.080Z,2.40
2023-03-19T04:41:53.070Z,2.40
2023-03-19T04:42:53.056Z,2.30
2023-03-19T04:43:53.043Z,2.80
2023-03-19T04:44:53.033Z,2.30
2023-03-19T04:45:53.106Z,2.50
2023-03-19T04:46:53.007Z,2.60
2023-03-19T04:47:53.012Z,2.30
2023-03-19T04:48:52.985Z,2.50
2023-03-19T04:49:52.967Z,2.60
2023-03-19T04:50:52.961Z,2.30
2023-03-19T04:51:52.945Z,2.80
2023-03-19T04:52:52.936Z,2.80
2023-03-19T04:53:52.934Z,2.70
2023-03-19T04:54:52.925Z,2.80
2023-03-19T04:55:52.896Z,3.00
2023-03-19T04:56:52.885Z,2.90
2023-03-19T04:57:52.877Z,2.60
2023-03-19T04:58:52.863Z,2.30
2023-03-19T04:59:52.849Z,3.00
2023-03-19T05:00:52.835Z,2.80
2023-03-19T05:01:52.821Z,2.40
2023-03-19T05:02:52.813Z,2.70
2023-03-19T05:03:52.900Z,2.70
2023-03-19T05:04:52.810Z,2.80
2023-03-19T05:05:52.771Z,2.80
2023-03-19T05:06:52.767Z,2.60
2023-03-19T05:07:52.751Z,2.80
2023-03-19T05:08:52.742Z,2.70
2023-03-19T05:09:52.727Z,2.90
2023-03-19T05:10:52.719Z,2.70
2023-03-19T05:11:52.704Z,2.60
2023-03-19T05:12:52.695Z,2.80
2023-03-19T05:13:52.679Z,2.60
2023-03-19T05:14:52.673Z,2.70
2023-03-19T05:15:52.718Z,2.60
2023-03-19T05:16:52.648Z,2.30
2023-03-19T05:17:52.630Z,2.80
2023-03-19T05:18:52.625Z,2.30
2023-03-19T05:19:52.636Z,2.80
2023-03-19T05:20:52.616Z,2.80
2023-03-19T05:21:52.595Z,2.40
2023-03-19T05:22:52.578Z,2.40
2023-03-19T05:23:52.561Z,2.70
2023-03-19T05:24:52.549Z,2.70
2023-03-19T05:25:52.537Z,2.40
2023-03-19T05:26:52.528Z,2.90
2023-03-19T05:27:52.512Z,2.60
2023-03-19T05:28:52.510Z,2.70
2023-03-19T05:29:52.524Z,3.50
2023-03-19T05:30:52.536Z,2.60
2023-03-19T05:31:52.467Z,2.60
2023-03-19T05:32:52.488Z,2.40
2023-03-19T05:33:52.439Z,2.80
2023-03-19T05:34:52.432Z,2.80
2023-03-19T05:35:52.473Z,2.70
2023-03-19T05:36:52.410Z,2.60
2023-03-19T05:37:52.399Z,2.80
2023-03-19T05:38:52.385Z,2.90
2023-03-19T05:39:52.371Z,2.80
2023-03-19T05:40:52.374Z,2.50
2023-03-19T05:41:52.347Z,3.10
2023-03-19T05:42:52.357Z,3.30
2023-03-19T05:43:52.323Z,2.40
2023-03-19T05:44:52.313Z,3.00
2023-03-19T05:45:52.307Z,3.10
2023-03-19T05:46:52.413Z,3.00
2023-03-19T05:47:52.274Z,2.60
2023-03-19T05:48:52.274Z,2.90
2023-03-19T05:49:52.248Z,2.80
2023-03-19T05:50:52.240Z,2.60
2023-03-19T05:51:52.344Z,3.00
2023-03-19T05:52:52.217Z,3.10
2023-03-19T05:53:52.199Z,2.40
2023-03-19T05:54:52.191Z,2.70
2023-03-19T05:55:52.178Z,2.50
2023-03-19T05:56:52.168Z,2.80
2023-03-19T05:57:52.155Z,2.20
2023-03-19T05:58:52.147Z,2.70
2023-03-19T05:59:52.129Z,2.60
2023-03-19T06:00:52.118Z,2.70
2023-03-19T06:01:52.128Z,3.20
2023-03-19T06:02:52.170Z,2.80
2023-03-19T06:03:52.178Z,2.30
2023-03-19T06:04:52.076Z,2.70
2023-03-19T06:05:52.055Z,2.50
2023-03-19T06:06:52.047Z,2.50
2023-03-19T06:07:52.053Z,2.60
2023-03-19T06:08:52.024Z,3.00
2023-03-19T06:09:52.008Z,2.30
2023-03-19T06:10:51.998Z,2.80
2023-03-19T06:11:52.001Z,2.80
2023-03-19T06:12:51.974Z,2.90
2023-03-19T06:13:51.960Z,2.70
2023-03-19T06:14:51.959Z,2.60
2023-03-19T06:15:51.954Z,2.60
2023-03-19T06:16:51.921Z,2.60
2023-03-19T06:17:51.908Z,2.40
2023-03-19T06:18:51.899Z,2.40
2023-03-19T06:19:51.887Z,2.50
2023-03-19T06:20:51.874Z,2.80
2023-03-19T06:21:51.863Z,2.60
2023-03-19T06:22:51.860Z,2.80
2023-03-19T06:23:51.853Z,2.60
2023-03-19T06:24:51.837Z,2.80
2023-03-19T06:25:51.815Z,2.40
2023-03-19T06:26:51.801Z,2.80
2023-03-19T06:27:51.786Z,2.50
2023-03-19T06:28:51.779Z,2.90
2023-03-19T06:29:51.763Z,2.30
2023-03-19T06:30:51.753Z,2.40
2023-03-19T06:31:51.805Z,2.40
2023-03-19T06:32:51.777Z,2.40
2023-03-19T06:33:51.716Z,2.70
2023-03-19T06:34:51.714Z,2.80
2023-03-19T06:35:51.729Z,2.90
2023-03-19T06:36:51.684Z,2.80
2023-03-19T06:37:51.667Z,2.30
2023-03-19T06:38:51.658Z,2.00
2023-03-19T06:39:51.663Z,2.50
2023-03-19T06:40:51.636Z,2.20
2023-03-19T06:41:51.620Z,2.60
2023-03-19T06:42:51.614Z,2.30
2023-03-19T06:43:51.609Z,2.00
2023-03-19T06:44:53.549Z,2.40
2023-03-19T06:45:51.611Z,2.40
2023-03-19T06:46:51.566Z,2.90
2023-03-19T06:47:53.459Z,2.70
2023-03-19T06:48:51.540Z,2.60
2023-03-19T06:49:51.521Z,2.60
2023-03-19T06:50:51.518Z,2.50
2023-03-19T06:51:51.499Z,2.50
2023-03-19T06:52:51.495Z,2.30
2023-03-19T06:53:51.476Z,2.40
2023-03-19T06:54:51.465Z,2.00
2023-03-19T06:55:51.473Z,2.40
2023-03-19T06:56:51.455Z,2.10
2023-03-19T06:57:51.435Z,2.30
2023-03-19T06:58:51.423Z,2.20
2023-03-19T06:59:51.405Z,2.40
2023-03-19T07:00:51.403Z,2.60
2023-03-19T07:01:51.579Z,2.30
2023-03-19T07:02:51.370Z,2.70
2023-03-19T07:03:51.402Z,2.40
2023-03-19T07:04:51.348Z,1.80
2023-03-19T07:05:51.334Z,2.40
2023-03-19T07:06:51.322Z,2.40
2023-03-19T07:07:51.309Z,2.50
2023-03-19T07:08:51.310Z,2.00
2023-03-19T07:09:51.285Z,2.60
2023-03-19T07:10:51.285Z,2.20
2023-03-19T07:11:51.278Z,2.50
2023-03-19T07:12:51.266Z,2.40
2023-03-19T07:13:51.237Z,2.50
2023-03-19T07:14:51.225Z,2.40
2023-03-19T07:15:51.210Z,2.50
2023-03-19T07:16:51.252Z,2.70
2023-03-19T07:17:51.199Z,2.10
2023-03-19T07:18:51.177Z,2.20
2023-03-19T07:19:51.163Z,2.70
2023-03-19T07:20:51.153Z,2.70
2023-03-19T07:21:51.138Z,2.40
2023-03-19T07:22:51.135Z,1.80
2023-03-19T07:23:51.134Z,2.40
2023-03-19T07:24:51.105Z,2.20
2023-03-19T07:25:51.130Z,2.30
2023-03-19T07:26:51.079Z,2.30
2023-03-19T07:27:51.096Z,2.40
2023-03-19T07:28:51.065Z,2.20
2023-03-19T07:29:51.059Z,2.20
2023-03-19T07:30:51.037Z,1.90
2023-03-19T07:31:51.099Z,2.30
2023-03-19T07:32:51.045Z,2.50
2023-03-19T07:33:51.005Z,2.20
2023-03-19T07:34:50.989Z,2.30
2023-03-19T07:35:51.019Z,2.50
2023-03-19T07:36:50.971Z,2.30
2023-03-19T07:37:50.952Z,2.10
2023-03-19T07:38:50.949Z,2.30
2023-03-19T07:39:50.930Z,2.40
2023-03-19T07:41:01.588Z,2.20
2023-03-19T07:41:50.912Z,2.00
2023-03-19T07:42:50.892Z,1.90
2023-03-19T07:43:50.903Z,2.30
2023-03-19T07:44:50.871Z,2.60
2023-03-19T07:45:50.910Z,2.20
2023-03-19T07:46:50.845Z,2.20
2023-03-19T07:47:50.837Z,2.10
2023-03-19T07:48:50.823Z,1.80
2023-03-19T07:49:50.813Z,2.00
2023-03-19T07:50:50.803Z,2.20
2023-03-19T07:51:50.792Z,2.00
2023-03-19T07:52:50.780Z,2.60
2023-03-19T07:53:50.768Z,2.40
2023-03-19T07:54:50.754Z,2.20
2023-03-19T07:55:50.757Z,2.10
2023-03-19T07:56:50.743Z,1.80
2023-03-19T07:57:50.770Z,2.00
2023-03-19T07:58:50.771Z,2.10
2023-03-19T07:59:50.760Z,2.00
2023-03-19T08:00:50.698Z,2.10
2023-03-19T08:01:50.725Z,2.20
2023-03-19T08:02:50.679Z,1.90
2023-03-19T08:03:50.660Z,2.10
2023-03-19T08:04:50.769Z,2.60
2023-03-19T08:05:50.641Z,2.30
2023-03-19T08:06:50.621Z,2.00
2023-03-19T08:07:50.616Z,1.80
2023-03-19T08:08:50.604Z,2.10
2023-03-19T08:09:50.593Z,2.40
2023-03-19T08:10:50.585Z,2.00
2023-03-19T08:11:50.572Z,1.80
2023-03-19T08:12:50.561Z,1.70
2023-03-19T08:13:50.552Z,1.70
2023-03-19T08:14:50.540Z,2.20
2023-03-19T08:15:50.547Z,1.90
2023-03-19T08:16:50.535Z,1.90
2023-03-19T08:17:50.511Z,1.40
2023-03-19T08:18:52.432Z,2.00
2023-03-19T08:19:50.500Z,1.70
2023-03-19T08:20:50.474Z,2.00
2023-03-19T08:21:50.467Z,2.10
2023-03-19T08:22:50.457Z,1.90
2023-03-19T08:23:50.450Z,1.80
2023-03-19T08:24:50.435Z,1.90
2023-03-19T08:25:50.427Z,2.10
2023-03-19T08:26:50.742Z,2.00
2023-03-19T08:27:50.496Z,2.60
2023-03-19T08:28:50.408Z,1.80
2023-03-19T08:29:50.386Z,1.90
2023-03-19T08:30:50.420Z,1.90
2023-03-19T08:31:50.389Z,1.90
2023-03-19T08:32:50.522Z,2.00
2023-03-19T08:33:50.349Z,2.00
2023-03-19T08:34:50.335Z,2.00
2023-03-19T08:35:50.353Z,1.50
2023-03-19T08:36:50.312Z,1.60
2023-03-19T08:37:50.309Z,1.90
2023-03-19T08:38:50.292Z,1.90
2023-03-19T08:39:50.287Z,2.20
2023-03-19T08:40:50.310Z,1.70
2023-03-19T08:41:50.266Z,1.70
2023-03-19T08:42:50.259Z,1.90
2023-03-19T08:43:50.245Z,1.90
2023-03-19T08:44:50.281Z,1.80
2023-03-19T08:45:50.265Z,1.70
2023-03-19T08:46:50.212Z,1.80
2023-03-19T08:47:50.235Z,1.70
2023-03-19T08:48:50.235Z,1.90
2023-03-19T08:49:50.200Z,1.80
2023-03-19T08:50:50.171Z,1.70
2023-03-19T08:51:50.167Z,2.20
2023-03-19T08:52:50.162Z,1.90
2023-03-19T08:53:50.148Z,2.00
2023-03-19T08:54:50.138Z,1.80
2023-03-19T08:55:50.126Z,1.90
2023-03-19T08:56:50.113Z,1.80
2023-03-19T08:57:50.107Z,2.00
2023-03-19T08:58:50.094Z,1.70
2023-03-19T08:59:50.104Z,1.90
2023-03-19T09:00:50.075Z,1.80
2023-03-19T09:01:50.115Z,1.70
2023-03-19T09:02:50.053Z,1.70
2023-03-19T09:03:50.070Z,2.20
2023-03-19T09:04:50.073Z,1.70
2023-03-19T09:05:50.025Z,2.20
2023-03-19T09:06:50.014Z,2.00
2023-03-19T09:07:50.007Z,1.50
2023-03-19T09:08:49.993Z,1.50
2023-03-19T09:09:49.986Z,2.20
2023-03-19T09:10:51.524Z,2.00
2023-03-19T09:11:49.969Z,1.90
2023-03-19T09:12:49.964Z,1.50
2023-03-19T09:13:49.948Z,2.70
2023-03-19T09:14:49.943Z,2.30
2023-03-19T09:15:49.960Z,2.20
2023-03-19T09:16:49.919Z,2.10
2023-03-19T09:17:49.913Z,2.30
2023-03-19T09:18:49.899Z,2.00
2023-03-19T09:19:49.914Z,2.00
2023-03-19T09:20:49.877Z,2.10
2023-03-19T09:21:49.873Z,2.30
2023-03-19T09:22:49.858Z,2.00
2023-03-19T09:23:49.857Z,2.30
2023-03-19T09:24:49.840Z,1.90
2023-03-19T09:25:49.858Z,1.90
2023-03-19T09:26:49.829Z,1.90
2023-03-19T09:27:49.813Z,2.30
2023-03-19T09:28:49.799Z,1.80
2023-03-19T09:29:49.797Z,2.10
2023-03-19T09:30:49.894Z,2.20
2023-03-19T09:31:49.847Z,2.00
2023-03-19T09:32:49.767Z,2.60
2023-03-19T09:33:49.754Z,1.90
2023-03-19T09:34:49.752Z,1.80
2023-03-19T09:35:49.795Z,2.30
2023-03-19T09:36:49.726Z,2.20
2023-03-19T09:37:51.548Z,2.20
2023-03-19T09:38:49.702Z,2.10
2023-03-19T09:39:49.697Z,2.10
2023-03-19T09:40:49.686Z,2.10
2023-03-19T09:41:49.691Z,2.50
2023-03-19T09:42:49.665Z,2.10
2023-03-19T09:43:49.658Z,2.20
2023-03-19T09:44:49.647Z,2.10
2023-03-19T09:45:49.664Z,2.10
2023-03-19T09:46:49.669Z,2.40
2023-03-19T09:47:49.620Z,2.00
2023-03-19T09:48:49.609Z,1.90
2023-03-19T09:49:49.602Z,2.20
2023-03-19T09:50:49.588Z,1.80
2023-03-19T09:51:49.608Z,2.00
2023-03-19T09:52:49.592Z,2.20
2023-03-19T09:53:49.563Z,2.10
2023-03-19T09:54:49.553Z,2.00
2023-03-19T09:55:49.594Z,2.00
2023-03-19T09:56:49.534Z,2.50
2023-03-19T09:57:49.528Z,2.20
2023-03-19T09:58:49.524Z,1.90
2023-03-19T09:59:49.511Z,1.70
2023-03-19T10:00:49.500Z,2.30
2023-03-19T10:01:49.523Z,2.20
2023-03-19T10:02:49.479Z,2.10
2023-03-19T10:03:49.503Z,1.40
2023-03-19T10:04:49.463Z,1.80
2023-03-19T10:05:49.482Z,2.50
2023-03-19T10:06:49.446Z,1.80
2023-03-19T10:07:49.482Z,2.00
2023-03-19T10:08:49.432Z,1.70
2023-03-19T10:09:49.420Z,2.00
2023-03-19T10:10:49.409Z,1.50
2023-03-19T10:11:49.402Z,1.70
2023-03-19T10:12:49.400Z,1.80
2023-03-19T10:13:49.389Z,1.80
2023-03-19T10:14:49.377Z,1.70
2023-03-19T10:15:49.367Z,1.80
2023-03-19T10:16:49.360Z,1.50
2023-03-19T10:17:49.353Z,1.90
2023-03-19T10:18:49.527Z,2.10
2023-03-19T10:19:49.342Z,1.80
2023-03-19T10:20:49.397Z,2.00
2023-03-19T10:21:49.323Z,1.60
2023-03-19T10:22:49.305Z,1.90
2023-03-19T10:23:49.319Z,2.00
2023-03-19T10:24:49.292Z,1.90
2023-03-19T10:25:49.312Z,1.90
2023-03-19T10:26:49.287Z,1.80
2023-03-19T10:27:49.268Z,2.00
2023-03-19T10:28:49.260Z,1.80
2023-03-19T10:29:49.250Z,1.80
2023-03-19T10:30:49.262Z,1.60
2023-03-19T10:31:49.262Z,2.10
2023-03-19T10:32:49.300Z,1.90
2023-03-19T10:33:49.250Z,2.50
2023-03-19T10:34:49.224Z,2.20
2023-03-19T10:35:49.254Z,1.90
2023-03-19T10:36:49.196Z,2.00
2023-03-19T10:37:49.187Z,2.00
2023-03-19T10:38:49.183Z,1.70
2023-03-19T10:39:49.193Z,1.70
2023-03-19T10:40:49.165Z,1.90
2023-03-19T10:41:49.200Z,2.10
2023-03-19T10:42:49.175Z,2.00
2023-03-19T10:43:49.188Z,2.20
2023-03-19T10:44:49.130Z,2.20
2023-03-19T10:45:49.292Z,1.70
2023-03-19T10:46:49.114Z,1.90
2023-03-19T10:47:49.107Z,1.80
2023-03-19T10:48:49.100Z,1.90
2023-03-19T10:49:49.095Z,2.00
2023-03-19T10:50:49.081Z,2.50
2023-03-19T10:51:49.077Z,2.20
2023-03-19T10:52:49.066Z,2.60
2023-03-19T10:53:49.060Z,2.10
2023-03-19T10:54:49.054Z,2.30
2023-03-19T10:55:49.066Z,2.00
2023-03-19T10:56:49.035Z,2.10
2023-03-19T10:57:49.081Z,1.90
2023-03-19T10:58:49.022Z,2.20
2023-03-19T10:59:49.064Z,2.30
2023-03-19T11:00:49.028Z,2.00
2023-03-19T11:01:48.998Z,2.00
2023-03-19T11:02:48.998Z,2.00
2023-03-19T11:03:49.025Z,1.80
2023-03-19T11:04:48.972Z,1.90
2023-03-19T11:05:48.967Z,2.20
2023-03-19T11:06:48.955Z,2.40
2023-03-19T11:07:48.949Z,1.90
2023-03-19T11:08:48.940Z,1.80
2023-03-19T11:09:48.980Z,2.30
2023-03-19T11:10:48.932Z,2.10
2023-03-19T11:11:50.790Z,2.00
2023-03-19T11:12:48.931Z,1.90
2023-03-19T11:13:48.903Z,1.80
2023-03-19T11:14:48.900Z,1.80
2023-03-19T11:15:48.889Z,2.50
2023-03-19T11:16:48.909Z,2.10
2023-03-19T11:17:48.872Z,2.20
2023-03-19T11:18:48.865Z,2.00
2023-03-19T11:19:48.860Z,2.10
2023-03-19T11:20:48.848Z,2.00
2023-03-19T11:21:48.843Z,2.20
2023-03-19T11:22:48.835Z,1.90
2023-03-19T11:23:48.834Z,2.00
2023-03-19T11:24:48.819Z,1.80
2023-03-19T11:25:48.816Z,1.90
2023-03-19T11:26:48.806Z,2.00
2023-03-19T11:27:48.821Z,2.20
2023-03-19T11:28:48.793Z,1.70
2023-03-19T11:29:48.789Z,3.10
2023-03-19T11:30:48.780Z,1.80
2023-03-19T11:31:48.829Z,1.70
2023-03-19T11:32:48.781Z,1.70
2023-03-19T11:33:48.758Z,1.60
2023-03-19T11:34:48.748Z,1.90
2023-03-19T11:35:48.785Z,2.10
2023-03-19T11:36:48.736Z,1.60
2023-03-19T11:37:48.734Z,2.00
2023-03-19T11:38:48.728Z,1.40
2023-03-19T11:39:48.720Z,1.90
2023-03-19T11:40:48.714Z,1.90
2023-03-19T11:41:48.711Z,1.80
2023-03-19T11:42:48.701Z,1.80
2023-03-19T11:43:48.709Z,1.70
2023-03-19T11:44:48.690Z,1.90
2023-03-19T11:45:48.713Z,1.70
2023-03-19T11:46:48.678Z,1.60
2023-03-19T11:47:48.668Z,1.70
2023-03-19T11:48:48.665Z,1.80
2023-03-19T11:49:48.652Z,1.80
2023-03-19T11:50:48.651Z,1.60
2023-03-19T11:51:48.652Z,2.00
2023-03-19T11:52:48.638Z,1.80
2023-03-19T11:53:48.629Z,1.80
2023-03-19T11:54:48.626Z,2.30
2023-03-19T11:55:48.617Z,1.90
2023-03-19T11:56:48.615Z,2.40
2023-03-19T11:57:48.608Z,1.60
2023-03-19T11:58:48.609Z,1.70
2023-03-19T11:59:48.612Z,1.20
2023-03-19T12:00:48.599Z,1.80
2023-03-19T12:01:48.580Z,1.50
2023-03-19T12:02:48.635Z,2.00
2023-03-19T12:03:48.664Z,1.80
2023-03-19T12:04:48.564Z,1.60
2023-03-19T12:05:48.563Z,1.50
2023-03-19T12:06:48.558Z,1.40
2023-03-19T12:07:48.543Z,1.80
2023-03-19T12:08:48.539Z,1.90
2023-03-19T12:09:48.527Z,1.40
2023-03-19T12:10:48.526Z,1.40
2023-03-19T12:11:48.522Z,2.30
2023-03-19T12:12:48.512Z,2.10
2023-03-19T12:13:48.502Z,2.10
2023-03-19T12:14:48.508Z,1.70
2023-03-19T12:15:48.593Z,1.80
2023-03-19T12:16:48.487Z,1.90
2023-03-19T12:17:48.478Z,1.90
2023-03-19T12:18:48.473Z,1.50
2023-03-19T12:19:48.464Z,1.40
2023-03-19T12:20:48.459Z,1.50
2023-03-19T12:21:48.449Z,1.90
2023-03-19T12:22:48.444Z,2.00
2023-03-19T12:23:48.440Z,2.00
2023-03-19T12:24:48.432Z,1.90
2023-03-19T12:25:48.423Z,1.80
2023-03-19T12:26:48.418Z,1.70
2023-03-19T12:27:48.407Z,1.60
2023-03-19T12:28:48.401Z,2.10
2023-03-19T12:29:48.392Z,1.70
2023-03-19T12:30:48.414Z,1.30
2023-03-19T12:31:48.398Z,2.00
2023-03-19T12:32:48.408Z,1.70
2023-03-19T12:33:48.362Z,1.60
2023-03-19T12:34:48.370Z,1.70
2023-03-19T12:35:48.376Z,1.30
2023-03-19T12:36:48.343Z,1.60
2023-03-19T12:37:48.337Z,1.60
2023-03-19T12:38:48.352Z,1.60
2023-03-19T12:39:48.315Z,1.90
2023-03-19T12:40:48.313Z,1.90
2023-03-19T12:41:48.302Z,1.80
2023-03-19T12:42:48.297Z,1.70
2023-03-19T12:43:48.286Z,1.50
2023-03-19T12:44:48.286Z,1.70
2023-03-19T12:45:48.277Z,1.60
2023-03-19T12:46:48.396Z,1.70
2023-03-19T12:47:48.297Z,1.30
2023-03-19T12:48:48.253Z,1.40
2023-03-19T12:49:48.245Z,1.40
2023-03-19T12:50:48.237Z,1.50
2023-03-19T12:51:48.229Z,1.20
2023-03-19T12:52:48.222Z,1.60
2023-03-19T12:53:48.217Z,1.80
2023-03-19T12:54:48.207Z,1.70
2023-03-19T12:55:48.201Z,1.60
2023-03-19T12:56:48.193Z,1.60
2023-03-19T12:57:48.179Z,1.80
2023-03-19T12:58:48.181Z,1.80
2023-03-19T12:59:48.168Z,2.40
2023-03-19T13:00:48.165Z,2.10
2023-03-19T13:01:48.282Z,1.70
2023-03-19T13:02:48.170Z,1.90
2023-03-19T13:03:48.162Z,1.70
2023-03-19T13:04:48.194Z,1.50
2023-03-19T13:05:48.124Z,1.70
2023-03-19T13:06:48.122Z,1.70
2023-03-19T13:07:48.115Z,1.50
2023-03-19T13:08:48.109Z,1.50
2023-03-19T13:09:48.098Z,1.50
2023-03-19T13:10:48.094Z,1.30
2023-03-19T13:11:48.089Z,1.70
2023-03-19T13:12:48.086Z,1.70
2023-03-19T13:13:48.069Z,1.30
2023-03-19T13:14:48.068Z,1.60
2023-03-19T13:15:48.092Z,1.50
2023-03-19T13:16:48.059Z,1.50
2023-03-19T13:17:48.042Z,1.60
2023-03-19T13:18:48.037Z,1.70
2023-03-19T13:19:48.065Z,2.20
2023-03-19T13:20:48.024Z,1.30
2023-03-19T13:21:48.014Z,1.70
2023-03-19T13:22:48.010Z,1.80